sensor_id;sensor_type;location;lat;lon;timestamp;P1;durP1;ratioP1;P2;durP2;ratioP2
35907;SDS011;22003;50.320;8.054;2022-07-22T04:00:52;19.40;;;10.95;;
35907;SDS011;22003;50.320;8.054;2022-07-22T04:03:18;20.92;;;11.60;;
35907;SDS011;22003;50.320;8.054;2022-07-22T04:05:43;21.50;;;11.15;;
35907;SDS011;22003;50.320;8.054;2022-07-22T04:08:09;23.23;;;11.00;;
35907;SDS011;22003;50.320;8.054;2022-07-22T04:10:35;22.90;;;11.27;;
35907;SDS011;22003;50.320;8.054;2022-07-22T04:13:00;19.50;;;10.77;;
35907;SDS011;22003;50.320;8.054;2022-07-22T04:15:26;20.40;;;11.48;;
35907;SDS011;22003;50.320;8.054;2022-07-22T04:17:51;21.60;;;11.80;;
35907;SDS011;22003;50.320;8.054;2022-07-22T04:20:16;19.67;;;10.77;;
35907;SDS011;22003;50.320;8.054;2022-07-22T04:22:42;19.05;;;11.10;;
35907;SDS011;22003;50.320;8.054;2022-07-22T04:25:07;18.75;;;10.93;;
35907;SDS011;22003;50.320;8.054;2022-07-22T04:27:33;21.70;;;10.95;;
35907;SDS011;22003;50.320;8.054;2022-07-22T04:29:59;16.27;;;11.07;;
35907;SDS011;22003;50.320;8.054;2022-07-22T04:32:24;22.52;;;12.63;;
35907;SDS011;22003;50.320;8.054;2022-07-22T04:34:49;18.02;;;11.55;;
35907;SDS011;22003;50.320;8.054;2022-07-22T04:37:15;18.30;;;11.55;;
35907;SDS011;22003;50.320;8.054;2022-07-22T04:39:40;18.52;;;11.77;;
35907;SDS011;22003;50.320;8.054;2022-07-22T04:42:05;22.45;;;11.75;;
35907;SDS011;22003;50.320;8.054;2022-07-22T04:44:31;20.30;;;12.02;;
35907;SDS011;22003;50.320;8.054;2022-07-22T04:46:56;22.50;;;12.07;;
35907;SDS011;22003;50.320;8.054;2022-07-22T04:49:21;19.00;;;11.00;;
35907;SDS011;22003;50.320;8.054;2022-07-22T04:51:46;20.30;;;11.45;;
35907;SDS011;22003;50.320;8.054;2022-07-22T04:54:12;18.88;;;10.63;;
35907;SDS011;22003;50.320;8.054;2022-07-22T04:56:37;20.65;;;12.07;;
35907;SDS011;22003;50.320;8.054;2022-07-22T04:59:02;19.33;;;10.82;;
35907;SDS011;22003;50.320;8.054;2022-07-22T05:01:27;24.02;;;11.07;;
35907;SDS011;22003;50.320;8.054;2022-07-22T05:03:53;19.15;;;12.05;;
35907;SDS011;22003;50.320;8.054;2022-07-22T05:06:18;21.10;;;11.88;;
35907;SDS011;22003;50.320;8.054;2022-07-22T05:08:43;22.02;;;11.57;;
35907;SDS011;22003;50.320;8.054;2022-07-22T05:11:09;22.08;;;11.98;;
35907;SDS011;22003;50.320;8.054;2022-07-22T05:13:34;23.15;;;12.48;;
35907;SDS011;22003;50.320;8.054;2022-07-22T05:16:03;18.95;;;11.23;;
35907;SDS011;22003;50.320;8.054;2022-07-22T05:18:32;21.20;;;11.93;;
35907;SDS011;22003;50.320;8.054;2022-07-22T05:20:57;21.98;;;12.52;;
35907;SDS011;22003;50.320;8.054;2022-07-22T05:23:22;21.33;;;11.85;;
35907;SDS011;22003;50.320;8.054;2022-07-22T05:25:48;19.35;;;10.93;;
35907;SDS011;22003;50.320;8.054;2022-07-22T05:28:14;20.75;;;12.40;;
35907;SDS011;22003;50.320;8.054;2022-07-22T05:30:39;23.67;;;11.52;;
35907;SDS011;22003;50.320;8.054;2022-07-22T05:33:04;24.02;;;12.00;;
35907;SDS011;22003;50.320;8.054;2022-07-22T05:35:29;20.48;;;11.75;;
35907;SDS011;22003;50.320;8.054;2022-07-22T05:37:55;19.02;;;10.40;;
35907;SDS011;22003;50.320;8.054;2022-07-22T05:40:21;18.35;;;11.15;;
35907;SDS011;22003;50.320;8.054;2022-07-22T05:42:47;19.70;;;10.65;;
35907;SDS011;22003;50.320;8.054;2022-07-22T05:45:12;19.48;;;12.23;;
35907;SDS011;22003;50.320;8.054;2022-07-22T05:47:37;18.02;;;10.80;;
35907;SDS011;22003;50.320;8.054;2022-07-22T05:50:03;17.73;;;10.52;;
35907;SDS011;22003;50.320;8.054;2022-07-22T05:52:28;17.30;;;10.73;;
35907;SDS011;22003;50.320;8.054;2022-07-22T05:54:54;18.45;;;11.05;;
35907;SDS011;22003;50.320;8.054;2022-07-22T05:57:19;13.65;;;8.52;;
35907;SDS011;22003;50.320;8.054;2022-07-22T05:59:44;13.80;;;8.63;;
35907;SDS011;22003;50.320;8.054;2022-07-22T06:02:10;13.90;;;9.75;;
35907;SDS011;22003;50.320;8.054;2022-07-22T06:04:35;16.02;;;9.00;;
35907;SDS011;22003;50.320;8.054;2022-07-22T06:07:00;18.30;;;10.02;;
35907;SDS011;22003;50.320;8.054;2022-07-22T06:09:26;15.13;;;9.00;;
35907;SDS011;22003;50.320;8.054;2022-07-22T06:11:51;16.25;;;9.68;;
35907;SDS011;22003;50.320;8.054;2022-07-22T06:14:16;15.63;;;8.50;;
35907;SDS011;22003;50.320;8.054;2022-07-22T06:16:42;16.60;;;8.63;;
35907;SDS011;22003;50.320;8.054;2022-07-22T06:19:07;16.52;;;9.38;;
35907;SDS011;22003;50.320;8.054;2022-07-22T06:21:32;12.70;;;9.13;;
35907;SDS011;22003;50.320;8.054;2022-07-22T06:23:57;13.98;;;8.93;;
35907;SDS011;22003;50.320;8.054;2022-07-22T06:26:23;13.52;;;9.20;;
35907;SDS011;22003;50.320;8.054;2022-07-22T06:28:48;12.98;;;8.25;;
35907;SDS011;22003;50.320;8.054;2022-07-22T06:31:13;19.42;;;10.85;;
35907;SDS011;22003;50.320;8.054;2022-07-22T06:33:39;14.07;;;7.75;;
35907;SDS011;22003;50.320;8.054;2022-07-22T06:36:04;12.95;;;8.00;;
35907;SDS011;22003;50.320;8.054;2022-07-22T06:38:30;12.35;;;7.80;;
35907;SDS011;22003;50.320;8.054;2022-07-22T06:40:56;12.80;;;7.22;;
35907;SDS011;22003;50.320;8.054;2022-07-22T06:43:22;13.45;;;8.30;;
35907;SDS011;22003;50.320;8.054;2022-07-22T06:45:47;13.90;;;8.52;;
35907;SDS011;22003;50.320;8.054;2022-07-22T06:48:12;15.27;;;8.68;;
35907;SDS011;22003;50.320;8.054;2022-07-22T06:50:38;14.70;;;8.55;;
35907;SDS011;22003;50.320;8.054;2022-07-22T06:53:03;13.02;;;7.63;;
35907;SDS011;22003;50.320;8.054;2022-07-22T06:55:28;13.05;;;8.05;;
35907;SDS011;22003;50.320;8.054;2022-07-22T06:57:54;11.85;;;6.97;;
35907;SDS011;22003;50.320;8.054;2022-07-22T07:00:19;12.75;;;7.38;;
35907;SDS011;22003;50.320;8.054;2022-07-22T07:02:45;11.93;;;7.03;;
35907;SDS011;22003;50.320;8.054;2022-07-22T07:05:10;12.02;;;7.40;;
35907;SDS011;22003;50.320;8.054;2022-07-22T07:07:36;10.02;;;6.95;;
35907;SDS011;22003;50.320;8.054;2022-07-22T07:10:02;14.25;;;7.32;;
35907;SDS011;22003;50.320;8.054;2022-07-22T07:12:28;11.30;;;6.93;;
35907;SDS011;22003;50.320;8.054;2022-07-22T07:14:53;12.82;;;7.32;;
35907;SDS011;22003;50.320;8.054;2022-07-22T07:17:19;11.05;;;6.72;;
35907;SDS011;22003;50.320;8.054;2022-07-22T07:19:44;10.32;;;7.00;;
35907;SDS011;22003;50.320;8.054;2022-07-22T07:22:10;11.45;;;6.70;;
35907;SDS011;22003;50.320;8.054;2022-07-22T07:24:35;9.45;;;6.35;;
35907;SDS011;22003;50.320;8.054;2022-07-22T07:27:00;10.25;;;7.05;;
35907;SDS011;22003;50.320;8.054;2022-07-22T07:29:26;10.45;;;6.55;;
35907;SDS011;22003;50.320;8.054;2022-07-22T07:31:51;9.02;;;6.13;;
35907;SDS011;22003;50.320;8.054;2022-07-22T07:34:16;9.15;;;5.80;;
35907;SDS011;22003;50.320;8.054;2022-07-22T07:36:41;10.98;;;6.28;;
35907;SDS011;22003;50.320;8.054;2022-07-22T07:39:07;10.95;;;6.65;;
35907;SDS011;22003;50.320;8.054;2022-07-22T07:41:32;10.07;;;6.65;;
35907;SDS011;22003;50.320;8.054;2022-07-22T07:43:58;9.95;;;6.43;;
35907;SDS011;22003;50.320;8.054;2022-07-22T07:46:23;9.82;;;6.07;;
35907;SDS011;22003;50.320;8.054;2022-07-22T07:48:48;10.73;;;6.32;;
35907;SDS011;22003;50.320;8.054;2022-07-22T07:51:14;9.18;;;6.28;;
35907;SDS011;22003;50.320;8.054;2022-07-22T07:53:40;10.85;;;6.15;;
35907;SDS011;22003;50.320;8.054;2022-07-22T07:56:05;9.70;;;5.55;;
35907;SDS011;22003;50.320;8.054;2022-07-22T07:58:31;9.85;;;6.47;;
35907;SDS011;22003;50.320;8.054;2022-07-22T08:00:56;11.52;;;6.97;;
35907;SDS011;22003;50.320;8.054;2022-07-22T08:03:21;9.20;;;6.28;;
35907;SDS011;22003;50.320;8.054;2022-07-22T08:05:47;9.25;;;6.57;;
35907;SDS011;22003;50.320;8.054;2022-07-22T08:08:12;8.57;;;5.93;;
35907;SDS011;22003;50.320;8.054;2022-07-22T08:10:37;11.93;;;6.78;;
35907;SDS011;22003;50.320;8.054;2022-07-22T08:13:03;7.70;;;6.07;;
35907;SDS011;22003;50.320;8.054;2022-07-22T08:15:29;11.05;;;6.50;;
35907;SDS011;22003;50.320;8.054;2022-07-22T08:17:56;9.48;;;6.03;;
35907;SDS011;22003;50.320;8.054;2022-07-22T08:20:23;9.40;;;5.75;;
35907;SDS011;22003;50.320;8.054;2022-07-22T08:22:49;9.90;;;6.20;;
35907;SDS011;22003;50.320;8.054;2022-07-22T08:25:15;9.13;;;5.97;;
35907;SDS011;22003;50.320;8.054;2022-07-22T08:27:41;10.07;;;5.78;;
35907;SDS011;22003;50.320;8.054;2022-07-22T08:30:07;11.32;;;6.45;;
35907;SDS011;22003;50.320;8.054;2022-07-22T08:32:33;8.80;;;5.97;;
35907;SDS011;22003;50.320;8.054;2022-07-22T08:34:59;8.82;;;5.25;;
35907;SDS011;22003;50.320;8.054;2022-07-22T08:37:24;7.55;;;5.68;;
35907;SDS011;22003;50.320;8.054;2022-07-22T08:39:50;8.10;;;5.82;;
35907;SDS011;22003;50.320;8.054;2022-07-22T08:42:18;8.48;;;5.60;;
35907;SDS011;22003;50.320;8.054;2022-07-22T08:44:46;10.40;;;5.93;;
35907;SDS011;22003;50.320;8.054;2022-07-22T08:47:12;8.90;;;5.60;;
35907;SDS011;22003;50.320;8.054;2022-07-22T08:49:38;7.72;;;5.50;;
35907;SDS011;22003;50.320;8.054;2022-07-22T08:52:04;9.32;;;6.15;;
35907;SDS011;22003;50.320;8.054;2022-07-22T08:54:29;7.82;;;5.28;;
35907;SDS011;22003;50.320;8.054;2022-07-22T08:56:54;8.73;;;5.57;;
35907;SDS011;22003;50.320;8.054;2022-07-22T08:59:19;7.68;;;5.40;;
35907;SDS011;22003;50.320;8.054;2022-07-22T09:02:08;9.05;;;5.03;;
35907;SDS011;22003;50.320;8.054;2022-07-22T09:07:30;9.90;;;5.40;;
35907;SDS011;22003;50.320;8.054;2022-07-22T09:10:01;7.50;;;5.05;;
35907;SDS011;22003;50.320;8.054;2022-07-22T09:12:28;7.43;;;5.30;;
35907;SDS011;22003;50.320;8.054;2022-07-22T09:14:55;10.70;;;5.43;;
35907;SDS011;22003;50.320;8.054;2022-07-22T09:17:23;7.07;;;5.05;;
35907;SDS011;22003;50.320;8.054;2022-07-22T09:19:54;9.25;;;5.47;;
35907;SDS011;22003;50.320;8.054;2022-07-22T09:24:56;9.43;;;5.55;;
35907;SDS011;22003;50.320;8.054;2022-07-22T09:27:22;9.00;;;5.57;;
35907;SDS011;22003;50.320;8.054;2022-07-22T09:29:49;7.68;;;5.05;;
35907;SDS011;22003;50.320;8.054;2022-07-22T09:32:15;8.00;;;5.25;;
35907;SDS011;22003;50.320;8.054;2022-07-22T09:34:40;7.63;;;5.40;;
35907;SDS011;22003;50.320;8.054;2022-07-22T09:37:06;7.65;;;5.57;;
35907;SDS011;22003;50.320;8.054;2022-07-22T09:39:32;10.27;;;5.68;;
35907;SDS011;22003;50.320;8.054;2022-07-22T09:44:23;10.65;;;6.25;;
35907;SDS011;22003;50.320;8.054;2022-07-22T09:46:49;10.13;;;5.43;;
35907;SDS011;22003;50.320;8.054;2022-07-22T09:49:30;15.45;;;5.97;;
35907;SDS011;22003;50.320;8.054;2022-07-22T09:52:00;10.10;;;5.82;;
35907;SDS011;22003;50.320;8.054;2022-07-22T09:54:27;7.83;;;5.27;;
35907;SDS011;22003;50.320;8.054;2022-07-22T09:56:54;9.15;;;5.60;;
35907;SDS011;22003;50.320;8.054;2022-07-22T09:59:19;6.78;;;4.30;;
35907;SDS011;22003;50.320;8.054;2022-07-22T10:01:45;8.18;;;4.93;;
35907;SDS011;22003;50.320;8.054;2022-07-22T10:04:14;7.32;;;5.07;;
35907;SDS011;22003;50.320;8.054;2022-07-22T10:06:42;6.95;;;4.88;;
35907;SDS011;22003;50.320;8.054;2022-07-22T10:09:08;9.55;;;4.93;;
35907;SDS011;22003;50.320;8.054;2022-07-22T10:11:36;7.53;;;4.65;;
35907;SDS011;22003;50.320;8.054;2022-07-22T10:14:02;8.40;;;5.00;;
35907;SDS011;22003;50.320;8.054;2022-07-22T10:16:27;7.88;;;4.82;;
35907;SDS011;22003;50.320;8.054;2022-07-22T10:18:54;8.68;;;5.60;;
35907;SDS011;22003;50.320;8.054;2022-07-22T10:21:19;8.15;;;4.82;;
35907;SDS011;22003;50.320;8.054;2022-07-22T10:24:08;7.18;;;5.13;;
35907;SDS011;22003;50.320;8.054;2022-07-22T10:26:48;11.02;;;5.38;;
35907;SDS011;22003;50.320;8.054;2022-07-22T10:29:24;8.57;;;5.38;;
35907;SDS011;22003;50.320;8.054;2022-07-22T10:32:11;6.70;;;5.00;;
35907;SDS011;22003;50.320;8.054;2022-07-22T10:43:03;8.43;;;5.75;;
35907;SDS011;22003;50.320;8.054;2022-07-22T10:48:05;8.82;;;5.38;;
35907;SDS011;22003;50.320;8.054;2022-07-22T10:53:02;7.40;;;5.10;;
35907;SDS011;22003;50.320;8.054;2022-07-22T10:55:29;5.68;;;4.60;;
35907;SDS011;22003;50.320;8.054;2022-07-22T10:57:55;7.95;;;5.63;;
35907;SDS011;22003;50.320;8.054;2022-07-22T11:00:20;7.75;;;5.00;;
35907;SDS011;22003;50.320;8.054;2022-07-22T11:02:46;7.18;;;5.10;;
35907;SDS011;22003;50.320;8.054;2022-07-22T11:05:12;7.95;;;5.35;;
35907;SDS011;22003;50.320;8.054;2022-07-22T11:07:41;6.75;;;5.00;;
35907;SDS011;22003;50.320;8.054;2022-07-22T11:10:08;8.23;;;4.90;;
35907;SDS011;22003;50.320;8.054;2022-07-22T11:12:34;7.35;;;5.43;;
35907;SDS011;22003;50.320;8.054;2022-07-22T11:15:00;8.95;;;4.85;;
35907;SDS011;22003;50.320;8.054;2022-07-22T11:17:26;7.57;;;4.90;;
35907;SDS011;22003;50.320;8.054;2022-07-22T11:19:51;6.65;;;5.13;;
35907;SDS011;22003;50.320;8.054;2022-07-22T11:22:17;7.85;;;5.28;;
35907;SDS011;22003;50.320;8.054;2022-07-22T11:24:42;7.40;;;5.38;;
35907;SDS011;22003;50.320;8.054;2022-07-22T11:27:14;5.68;;;5.00;;
35907;SDS011;22003;50.320;8.054;2022-07-22T11:29:41;7.40;;;5.85;;
35907;SDS011;22003;50.320;8.054;2022-07-22T11:32:12;7.55;;;5.25;;
35907;SDS011;22003;50.320;8.054;2022-07-22T11:34:42;7.30;;;4.93;;
35907;SDS011;22003;50.320;8.054;2022-07-22T11:37:12;7.57;;;5.72;;
35907;SDS011;22003;50.320;8.054;2022-07-22T11:39:44;6.82;;;5.07;;
35907;SDS011;22003;50.320;8.054;2022-07-22T11:42:10;7.82;;;5.45;;
35907;SDS011;22003;50.320;8.054;2022-07-22T11:44:36;8.73;;;6.05;;
35907;SDS011;22003;50.320;8.054;2022-07-22T11:47:03;6.72;;;5.18;;
35907;SDS011;22003;50.320;8.054;2022-07-22T11:49:29;7.20;;;5.57;;
35907;SDS011;22003;50.320;8.054;2022-07-22T11:51:58;6.65;;;5.22;;
35907;SDS011;22003;50.320;8.054;2022-07-22T11:54:24;10.57;;;4.60;;
35907;SDS011;22003;50.320;8.054;2022-07-22T11:56:49;8.60;;;5.97;;
35907;SDS011;22003;50.320;8.054;2022-07-22T11:59:16;6.80;;;4.78;;
35907;SDS011;22003;50.320;8.054;2022-07-22T12:01:45;8.02;;;5.07;;
35907;SDS011;22003;50.320;8.054;2022-07-22T12:04:22;8.45;;;4.75;;
35907;SDS011;22003;50.320;8.054;2022-07-22T12:06:48;8.60;;;5.32;;
35907;SDS011;22003;50.320;8.054;2022-07-22T12:09:15;7.70;;;5.45;;
35907;SDS011;22003;50.320;8.054;2022-07-22T12:11:47;8.95;;;5.35;;
35907;SDS011;22003;50.320;8.054;2022-07-22T12:14:15;6.13;;;4.53;;
35907;SDS011;22003;50.320;8.054;2022-07-22T12:16:57;9.82;;;5.05;;
35907;SDS011;22003;50.320;8.054;2022-07-22T12:19:25;6.93;;;4.68;;
35907;SDS011;22003;50.320;8.054;2022-07-22T12:24:34;6.22;;;4.97;;
35907;SDS011;22003;50.320;8.054;2022-07-22T12:27:08;7.22;;;5.18;;
35907;SDS011;22003;50.320;8.054;2022-07-22T12:32:04;6.70;;;4.73;;
35907;SDS011;22003;50.320;8.054;2022-07-22T12:34:36;5.28;;;4.57;;
35907;SDS011;22003;50.320;8.054;2022-07-22T12:40:04;7.78;;;5.55;;
35907;SDS011;22003;50.320;8.054;2022-07-22T12:42:34;6.65;;;4.90;;
35907;SDS011;22003;50.320;8.054;2022-07-22T12:50:39;8.65;;;5.10;;
35907;SDS011;22003;50.320;8.054;2022-07-22T12:53:09;7.65;;;5.32;;
35907;SDS011;22003;50.320;8.054;2022-07-22T12:55:40;6.88;;;5.18;;
35907;SDS011;22003;50.320;8.054;2022-07-22T12:58:07;7.55;;;4.93;;
35907;SDS011;22003;50.320;8.054;2022-07-22T13:00:34;8.38;;;5.03;;
35907;SDS011;22003;50.320;8.054;2022-07-22T13:03:01;8.70;;;5.28;;
35907;SDS011;22003;50.320;8.054;2022-07-22T13:05:27;6.50;;;5.07;;
35907;SDS011;22003;50.320;8.054;2022-07-22T13:07:53;6.40;;;5.10;;
35907;SDS011;22003;50.320;8.054;2022-07-22T13:10:19;7.40;;;5.00;;
35907;SDS011;22003;50.320;8.054;2022-07-22T13:15:11;7.07;;;5.13;;
35907;SDS011;22003;50.320;8.054;2022-07-22T13:17:37;6.90;;;4.60;;
35907;SDS011;22003;50.320;8.054;2022-07-22T13:20:04;6.60;;;4.78;;
35907;SDS011;22003;50.320;8.054;2022-07-22T13:22:32;6.63;;;4.90;;
35907;SDS011;22003;50.320;8.054;2022-07-22T13:24:57;6.70;;;5.03;;
35907;SDS011;22003;50.320;8.054;2022-07-22T13:27:23;7.15;;;5.32;;
35907;SDS011;22003;50.320;8.054;2022-07-22T13:29:48;9.13;;;4.97;;
35907;SDS011;22003;50.320;8.054;2022-07-22T13:32:14;6.05;;;4.70;;
35907;SDS011;22003;50.320;8.054;2022-07-22T13:34:39;7.18;;;4.80;;
35907;SDS011;22003;50.320;8.054;2022-07-22T13:37:04;7.50;;;5.25;;
35907;SDS011;22003;50.320;8.054;2022-07-22T13:39:30;8.95;;;6.25;;
35907;SDS011;22003;50.320;8.054;2022-07-22T13:41:55;8.43;;;5.00;;
35907;SDS011;22003;50.320;8.054;2022-07-22T13:44:20;7.47;;;5.10;;
35907;SDS011;22003;50.320;8.054;2022-07-22T13:46:46;8.75;;;5.47;;
35907;SDS011;22003;50.320;8.054;2022-07-22T13:49:12;7.78;;;4.47;;
35907;SDS011;22003;50.320;8.054;2022-07-22T13:51:37;6.40;;;5.00;;
35907;SDS011;22003;50.320;8.054;2022-07-22T13:54:03;7.47;;;5.25;;
35907;SDS011;22003;50.320;8.054;2022-07-22T13:56:29;7.25;;;4.63;;
35907;SDS011;22003;50.320;8.054;2022-07-22T13:58:55;54.13;;;9.75;;
35907;SDS011;22003;50.320;8.054;2022-07-22T14:01:21;39.10;;;7.47;;
35907;SDS011;22003;50.320;8.054;2022-07-22T14:03:47;37.78;;;7.68;;
35907;SDS011;22003;50.320;8.054;2022-07-22T14:06:12;7.05;;;5.70;;
35907;SDS011;22003;50.320;8.054;2022-07-22T14:08:37;9.80;;;4.90;;
35907;SDS011;22003;50.320;8.054;2022-07-22T14:11:03;6.83;;;5.10;;
35907;SDS011;22003;50.320;8.054;2022-07-22T14:13:28;6.65;;;4.90;;
35907;SDS011;22003;50.320;8.054;2022-07-22T14:15:54;6.50;;;4.60;;
35907;SDS011;22003;50.320;8.054;2022-07-22T14:18:19;8.55;;;5.18;;
35907;SDS011;22003;50.320;8.054;2022-07-22T14:20:45;7.15;;;5.60;;
35907;SDS011;22003;50.320;8.054;2022-07-22T14:23:10;7.70;;;4.95;;
35907;SDS011;22003;50.320;8.054;2022-07-22T14:25:36;7.93;;;5.30;;
35907;SDS011;22003;50.320;8.054;2022-07-22T14:28:03;5.93;;;4.70;;
35907;SDS011;22003;50.320;8.054;2022-07-22T14:30:29;8.05;;;5.80;;
35907;SDS011;22003;50.320;8.054;2022-07-22T14:32:54;7.82;;;5.15;;
35907;SDS011;22003;50.320;8.054;2022-07-22T14:35:20;11.05;;;4.88;;
35907;SDS011;22003;50.320;8.054;2022-07-22T14:37:46;6.45;;;4.95;;
35907;SDS011;22003;50.320;8.054;2022-07-22T14:40:11;8.73;;;4.95;;
35907;SDS011;22003;50.320;8.054;2022-07-22T14:42:37;7.15;;;4.90;;
35907;SDS011;22003;50.320;8.054;2022-07-22T14:45:02;6.40;;;5.00;;
35907;SDS011;22003;50.320;8.054;2022-07-22T14:47:29;5.77;;;4.87;;
35907;SDS011;22003;50.320;8.054;2022-07-22T14:49:54;7.40;;;5.57;;
35907;SDS011;22003;50.320;8.054;2022-07-22T14:52:19;5.88;;;4.70;;
35907;SDS011;22003;50.320;8.054;2022-07-22T14:54:45;7.25;;;4.80;;
35907;SDS011;22003;50.320;8.054;2022-07-22T14:57:10;6.93;;;5.15;;
35907;SDS011;22003;50.320;8.054;2022-07-22T14:59:35;7.03;;;5.25;;
35907;SDS011;22003;50.320;8.054;2022-07-22T15:02:01;7.70;;;5.40;;
35907;SDS011;22003;50.320;8.054;2022-07-22T15:04:26;7.75;;;5.68;;
35907;SDS011;22003;50.320;8.054;2022-07-22T15:06:51;6.95;;;5.32;;
35907;SDS011;22003;50.320;8.054;2022-07-22T15:09:16;6.57;;;5.13;;
35907;SDS011;22003;50.320;8.054;2022-07-22T15:11:42;7.80;;;5.22;;
35907;SDS011;22003;50.320;8.054;2022-07-22T15:14:07;7.88;;;5.60;;
35907;SDS011;22003;50.320;8.054;2022-07-22T15:16:33;9.95;;;5.13;;
35907;SDS011;22003;50.320;8.054;2022-07-22T15:18:59;5.95;;;4.80;;
35907;SDS011;22003;50.320;8.054;2022-07-22T15:21:24;9.45;;;5.78;;
35907;SDS011;22003;50.320;8.054;2022-07-22T15:23:50;5.95;;;5.03;;
35907;SDS011;22003;50.320;8.054;2022-07-22T15:26:15;5.68;;;4.82;;
35907;SDS011;22003;50.320;8.054;2022-07-22T15:28:42;7.15;;;5.35;;
35907;SDS011;22003;50.320;8.054;2022-07-22T15:31:08;6.70;;;5.30;;
35907;SDS011;22003;50.320;8.054;2022-07-22T15:33:33;9.27;;;5.20;;
35907;SDS011;22003;50.320;8.054;2022-07-22T15:35:59;7.68;;;5.05;;
35907;SDS011;22003;50.320;8.054;2022-07-22T15:38:24;8.82;;;5.20;;
35907;SDS011;22003;50.320;8.054;2022-07-22T15:40:49;5.43;;;4.68;;
35907;SDS011;22003;50.320;8.054;2022-07-22T15:43:15;6.57;;;5.40;;
35907;SDS011;22003;50.320;8.054;2022-07-22T15:45:40;6.90;;;5.13;;
35907;SDS011;22003;50.320;8.054;2022-07-22T15:48:07;7.05;;;5.65;;
35907;SDS011;22003;50.320;8.054;2022-07-22T15:50:32;6.22;;;5.30;;
35907;SDS011;22003;50.320;8.054;2022-07-22T15:52:58;7.93;;;5.18;;
35907;SDS011;22003;50.320;8.054;2022-07-22T15:55:24;5.53;;;4.63;;
35907;SDS011;22003;50.320;8.054;2022-07-22T15:57:49;6.07;;;5.30;;
35907;SDS011;22003;50.320;8.054;2022-07-22T16:00:33;6.38;;;5.25;;
35907;SDS011;22003;50.320;8.054;2022-07-22T16:02:59;5.90;;;5.13;;
35907;SDS011;22003;50.320;8.054;2022-07-22T16:05:24;6.32;;;4.93;;
35907;SDS011;22003;50.320;8.054;2022-07-22T16:07:50;8.82;;;5.10;;
35907;SDS011;22003;50.320;8.054;2022-07-22T16:10:16;9.30;;;5.00;;
35907;SDS011;22003;50.320;8.054;2022-07-22T16:12:41;7.22;;;5.72;;
35907;SDS011;22003;50.320;8.054;2022-07-22T16:15:07;5.63;;;4.82;;
35907;SDS011;22003;50.320;8.054;2022-07-22T16:17:32;6.70;;;4.70;;
35907;SDS011;22003;50.320;8.054;2022-07-22T16:19:58;6.75;;;5.63;;
35907;SDS011;22003;50.320;8.054;2022-07-22T16:22:23;8.07;;;4.88;;
35907;SDS011;22003;50.320;8.054;2022-07-22T16:24:48;5.75;;;4.85;;
35907;SDS011;22003;50.320;8.054;2022-07-22T16:27:14;6.82;;;4.75;;
35907;SDS011;22003;50.320;8.054;2022-07-22T16:29:39;7.68;;;5.32;;
35907;SDS011;22003;50.320;8.054;2022-07-22T16:32:05;6.93;;;4.78;;
35907;SDS011;22003;50.320;8.054;2022-07-22T16:34:30;5.65;;;4.88;;
35907;SDS011;22003;50.320;8.054;2022-07-22T16:36:55;6.93;;;4.95;;
35907;SDS011;22003;50.320;8.054;2022-07-22T16:39:21;8.13;;;4.97;;
35907;SDS011;22003;50.320;8.054;2022-07-22T16:41:46;5.35;;;4.85;;
35907;SDS011;22003;50.320;8.054;2022-07-22T16:44:11;6.05;;;5.07;;
35907;SDS011;22003;50.320;8.054;2022-07-22T16:46:37;6.15;;;4.90;;
35907;SDS011;22003;50.320;8.054;2022-07-22T16:49:02;7.00;;;4.78;;
35907;SDS011;22003;50.320;8.054;2022-07-22T16:51:28;4.90;;;4.38;;
35907;SDS011;22003;50.320;8.054;2022-07-22T16:53:54;6.90;;;4.68;;
35907;SDS011;22003;50.320;8.054;2022-07-22T16:56:19;6.35;;;5.15;;
35907;SDS011;22003;50.320;8.054;2022-07-22T16:58:44;8.48;;;5.45;;
35907;SDS011;22003;50.320;8.054;2022-07-22T17:01:09;10.15;;;5.13;;
35907;SDS011;22003;50.320;8.054;2022-07-22T17:03:35;7.10;;;4.88;;
35907;SDS011;22003;50.320;8.054;2022-07-22T17:06:00;10.02;;;4.60;;
35907;SDS011;22003;50.320;8.054;2022-07-22T17:08:26;6.22;;;4.72;;
35907;SDS011;22003;50.320;8.054;2022-07-22T17:10:52;10.30;;;4.97;;
35907;SDS011;22003;50.320;8.054;2022-07-22T17:13:17;5.93;;;4.55;;
35907;SDS011;22003;50.320;8.054;2022-07-22T17:15:43;6.93;;;5.15;;
35907;SDS011;22003;50.320;8.054;2022-07-22T17:18:08;6.18;;;5.00;;
35907;SDS011;22003;50.320;8.054;2022-07-22T17:20:33;7.03;;;5.00;;
35907;SDS011;22003;50.320;8.054;2022-07-22T17:22:59;5.45;;;4.55;;
35907;SDS011;22003;50.320;8.054;2022-07-22T17:25:25;6.93;;;4.82;;
35907;SDS011;22003;50.320;8.054;2022-07-22T17:27:50;6.72;;;4.22;;
35907;SDS011;22003;50.320;8.054;2022-07-22T17:30:16;7.85;;;4.88;;
35907;SDS011;22003;50.320;8.054;2022-07-22T17:32:41;6.97;;;5.25;;
35907;SDS011;22003;50.320;8.054;2022-07-22T17:35:07;6.25;;;4.20;;
35907;SDS011;22003;50.320;8.054;2022-07-22T17:37:33;7.05;;;4.97;;
35907;SDS011;22003;50.320;8.054;2022-07-22T17:39:58;5.95;;;4.72;;
35907;SDS011;22003;50.320;8.054;2022-07-22T17:42:23;6.50;;;4.75;;
35907;SDS011;22003;50.320;8.054;2022-07-22T17:44:49;7.28;;;5.32;;
35907;SDS011;22003;50.320;8.054;2022-07-22T17:47:14;7.35;;;4.95;;
35907;SDS011;22003;50.320;8.054;2022-07-22T17:49:41;6.60;;;4.60;;
35907;SDS011;22003;50.320;8.054;2022-07-22T17:52:06;7.82;;;5.07;;
35907;SDS011;22003;50.320;8.054;2022-07-22T17:54:32;7.50;;;4.68;;
35907;SDS011;22003;50.320;8.054;2022-07-22T17:56:59;6.22;;;4.65;;
35907;SDS011;22003;50.320;8.054;2022-07-22T17:59:24;7.72;;;5.53;;
35907;SDS011;22003;50.320;8.054;2022-07-22T18:01:49;5.45;;;4.78;;
35907;SDS011;22003;50.320;8.054;2022-07-22T18:04:14;7.55;;;5.25;;
35907;SDS011;22003;50.320;8.054;2022-07-22T18:06:40;6.32;;;4.65;;
35907;SDS011;22003;50.320;8.054;2022-07-22T18:09:05;6.95;;;5.40;;
35907;SDS011;22003;50.320;8.054;2022-07-22T18:11:30;8.00;;;5.70;;
35907;SDS011;22003;50.320;8.054;2022-07-22T18:13:56;6.28;;;4.63;;
35907;SDS011;22003;50.320;8.054;2022-07-22T18:16:21;6.40;;;4.72;;
35907;SDS011;22003;50.320;8.054;2022-07-22T18:18:47;7.60;;;4.78;;
35907;SDS011;22003;50.320;8.054;2022-07-22T18:21:12;7.32;;;4.95;;
35907;SDS011;22003;50.320;8.054;2022-07-22T18:23:37;6.97;;;5.45;;
35907;SDS011;22003;50.320;8.054;2022-07-22T18:26:03;6.90;;;5.38;;
35907;SDS011;22003;50.320;8.054;2022-07-22T18:28:29;6.80;;;5.03;;
35907;SDS011;22003;50.320;8.054;2022-07-22T18:30:55;7.80;;;5.13;;
35907;SDS011;22003;50.320;8.054;2022-07-22T18:33:21;7.88;;;5.13;;
35907;SDS011;22003;50.320;8.054;2022-07-22T18:35:46;5.53;;;4.82;;
35907;SDS011;22003;50.320;8.054;2022-07-22T18:38:11;7.30;;;5.13;;
35907;SDS011;22003;50.320;8.054;2022-07-22T18:40:37;7.20;;;4.85;;
35907;SDS011;22003;50.320;8.054;2022-07-22T18:43:02;9.15;;;5.03;;
35907;SDS011;22003;50.320;8.054;2022-07-22T18:45:27;7.82;;;4.70;;
35907;SDS011;22003;50.320;8.054;2022-07-22T18:47:53;7.80;;;4.93;;
35907;SDS011;22003;50.320;8.054;2022-07-22T18:50:18;8.60;;;4.80;;
35907;SDS011;22003;50.320;8.054;2022-07-22T18:52:44;9.98;;;4.75;;
35907;SDS011;22003;50.320;8.054;2022-07-22T18:55:10;7.30;;;4.85;;
35907;SDS011;22003;50.320;8.054;2022-07-22T18:57:35;8.55;;;5.10;;
35907;SDS011;22003;50.320;8.054;2022-07-22T19:00:01;8.10;;;5.25;;
35907;SDS011;22003;50.320;8.054;2022-07-22T19:02:26;7.18;;;4.80;;
35907;SDS011;22003;50.320;8.054;2022-07-22T19:04:51;6.70;;;4.68;;
35907;SDS011;22003;50.320;8.054;2022-07-22T19:07:17;7.43;;;4.50;;
35907;SDS011;22003;50.320;8.054;2022-07-22T19:09:42;7.43;;;4.93;;
35907;SDS011;22003;50.320;8.054;2022-07-22T19:12:08;6.40;;;4.68;;